Time;durP1;ratioP1;P1;durP2;ratioP2;P2;SDS_P1;SDS_P2;PMS_P1;PMS_P2;Temp;Humidity;BMP_temperature;BMP_pressure;BME280_temperature;BME280_humidity;BME280_pressure;Samples;Min_cycle;Max_cycle;Signal;HPM_P1;HPM_P2
2022/05/24 00:01:46;;;;;;;3.10;1.70;;;24.00;55.40;;;;;;5091785;28;20393;-66
2022/05/24 00:04:11;;;;;;;3.23;1.70;;;24.00;55.30;;;;;;5089772;28;20394;-66
2022/05/24 00:06:37;;;;;;;4.10;1.90;;;24.00;55.40;;;;;;5091428;28;20819;-66
2022/05/24 00:09:03;;;;;;;5.13;1.90;;;23.90;55.30;;;;;;5091478;28;20394;-66
2022/05/24 00:11:28;;;;;;;3.08;1.58;;;24.00;55.30;;;;;;5091672;28;20893;-66
2022/05/24 00:13:54;;;;;;;3.00;1.80;;;24.00;55.30;;;;;;5091664;28;20394;-66
2022/05/24 00:16:21;;;;;;;2.65;1.60;;;24.00;55.40;;;;;;5090023;28;20984;-66
2022/05/24 00:18:47;;;;;;;3.40;1.70;;;24.00;55.30;;;;;;5090921;28;20418;-66
2022/05/24 00:21:13;;;;;;;3.72;1.90;;;23.90;55.20;;;;;;5091551;28;20464;-66
2022/05/24 00:23:39;;;;;;;3.80;1.70;;;24.00;55.20;;;;;;5091460;28;20393;-66
2022/05/24 00:26:12;;;;;;;4.70;1.77;;;24.00;55.20;;;;;;5091565;28;20378;-66
2022/05/24 00:28:38;;;;;;;4.35;1.90;;;24.00;55.30;;;;;;5091208;28;20851;-65
2022/05/24 00:31:04;;;;;;;2.67;1.80;;;23.90;55.10;;;;;;5091252;28;20448;-66
2022/05/24 00:33:31;;;;;;;2.95;2.00;;;23.90;55.20;;;;;;5090080;28;20426;-66
2022/05/24 00:35:57;;;;;;;2.33;1.70;;;24.00;55.20;;;;;;5091396;28;20392;-66
2022/05/24 00:38:28;;;;;;;2.80;1.70;;;24.00;55.20;;;;;;5091326;28;20397;-66
2022/05/24 00:41:11;;;;;;;2.95;1.92;;;23.90;55.10;;;;;;5090944;28;20879;-66
2022/05/24 00:43:43;;;;;;;3.92;1.90;;;23.90;55.10;;;;;;5091334;28;20866;-66
2022/05/24 00:46:17;;;;;;;3.60;2.00;;;23.90;55.10;;;;;;5091346;28;20418;-66
2022/05/24 00:48:53;;;;;;;3.17;1.77;;;23.90;55.10;;;;;;5090985;28;20389;-66
2022/05/24 00:51:26;;;;;;;3.28;1.80;;;23.90;55.10;;;;;;5091118;28;20491;-66
2022/05/24 00:53:54;;;;;;;3.55;1.70;;;23.90;55.20;;;;;;5091288;28;20485;-66
2022/05/24 00:56:39;;;;;;;2.75;1.70;;;23.90;55.20;;;;;;5091297;28;20390;-66
2022/05/24 00:59:07;;;;;;;3.00;1.60;;;23.90;55.20;;;;;;5089626;28;20417;-66
2022/05/24 01:01:40;;;;;;;4.18;1.70;;;23.90;55.10;;;;;;5091123;28;20925;-66
2022/05/24 01:04:09;;;;;;;2.67;1.77;;;23.90;55.20;;;;;;5091185;28;20938;-66
2022/05/24 01:06:36;;;;;;;3.15;1.80;;;23.90;55.10;;;;;;5089597;28;20515;-66
2022/05/24 01:09:06;;;;;;;3.67;2.00;;;23.90;55.10;;;;;;5090649;28;20779;-66
2022/05/24 01:11:38;;;;;;;3.50;1.80;;;23.90;55.20;;;;;;5091141;28;20378;-66
2022/05/24 01:14:05;;;;;;;3.05;1.60;;;23.90;55.10;;;;;;5091994;28;20386;-66
2022/05/24 01:16:30;;;;;;;2.78;1.85;;;23.90;55.20;;;;;;5093684;28;20382;-66
2022/05/24 01:18:56;;;;;;;2.77;1.70;;;23.90;55.10;;;;;;5092515;28;20436;-66
2022/05/24 01:21:22;;;;;;;3.03;1.75;;;23.90;55.10;;;;;;5094544;28;20382;-66
2022/05/24 01:23:57;;;;;;;3.58;1.83;;;23.90;55.10;;;;;;5094603;28;20468;-66
2022/05/24 01:26:41;;;;;;;3.05;1.77;;;23.90;55.10;;;;;;5094715;28;20385;-66
2022/05/24 01:29:08;;;;;;;2.55;1.60;;;23.90;55.20;;;;;;5094396;28;20421;-66
2022/05/24 01:37:07;;;;;;;2.97;1.80;;;23.90;55.00;;;;;;5094358;28;20401;-66
2022/05/24 01:39:33;;;;;;;2.35;1.70;;;23.80;54.90;;;;;;5094263;28;20420;-66
2022/05/24 01:41:59;;;;;;;3.05;1.40;;;23.80;55.00;;;;;;5093193;28;20390;-66
2022/05/24 01:44:29;;;;;;;2.40;1.58;;;23.80;54.90;;;;;;5094558;28;20425;-66
2022/05/24 01:46:55;;;;;;;3.80;1.70;;;23.80;55.00;;;;;;5093961;28;20439;-66
2022/05/24 01:49:28;;;;;;;2.58;1.60;;;23.80;55.00;;;;;;5094304;28;20870;-66
2022/05/24 01:52:16;;;;;;;2.92;1.65;;;23.80;54.90;;;;;;5090315;28;20413;-66
2022/05/24 01:54:47;;;;;;;2.47;1.50;;;23.80;54.90;;;;;;5092541;28;20432;-66
2022/05/24 01:57:20;;;;;;;2.85;1.60;;;23.80;54.90;;;;;;5093924;28;20381;-66
2022/05/24 01:59:49;;;;;;;3.72;1.48;;;23.80;54.90;;;;;;5092718;28;20936;-66
2022/05/24 02:02:15;;;;;;;2.73;1.63;;;23.80;54.90;;;;;;5094071;28;20390;-66
2022/05/24 02:04:41;;;;;;;2.80;1.52;;;23.80;54.90;;;;;;5093924;28;20476;-66
2022/05/24 02:07:13;;;;;;;3.08;1.77;;;23.80;54.90;;;;;;5092252;28;20462;-66
2022/05/24 02:09:42;;;;;;;3.75;1.80;;;23.80;54.90;;;;;;5093836;28;20424;-66
2022/05/24 02:12:15;;;;;;;3.47;1.52;;;23.80;54.90;;;;;;5092513;28;20396;-66
2022/05/24 02:14:49;;;;;;;3.30;1.88;;;23.80;54.90;;;;;;5093741;28;20387;-66
2022/05/24 02:17:20;;;;;;;2.40;1.40;;;23.80;54.90;;;;;;5093553;28;20386;-66
2022/05/24 02:19:50;;;;;;;4.78;1.60;;;23.80;54.90;;;;;;5093578;28;20418;-66
2022/05/24 02:22:25;;;;;;;3.08;1.90;;;23.80;54.90;;;;;;5093689;28;20382;-66
2022/05/24 02:25:03;;;;;;;3.78;1.80;;;23.80;54.90;;;;;;5093288;28;20390;-66
2022/05/24 02:27:29;;;;;;;4.10;1.70;;;23.80;54.90;;;;;;5092916;28;20477;-66
2022/05/24 02:29:56;;;;;;;2.60;1.57;;;23.80;54.90;;;;;;5092186;28;20965;-66
2022/05/24 02:32:22;;;;;;;3.10;1.70;;;23.80;54.90;;;;;;5093449;28;20382;-66
2022/05/24 02:34:48;;;;;;;2.42;1.48;;;23.80;54.90;;;;;;5093113;28;20390;-66
2022/05/24 02:37:13;;;;;;;5.22;1.58;;;23.80;54.90;;;;;;5093091;28;20884;-66
2022/05/24 02:42:23;;;;;;;2.22;1.50;;;23.80;54.90;;;;;;5093300;28;20408;-66
2022/05/24 02:44:49;;;;;;;3.33;1.70;;;23.80;54.90;;;;;;5092922;28;20421;-66
2022/05/24 02:47:15;;;;;;;3.10;1.70;;;23.80;54.90;;;;;;5092900;28;20378;-66
2022/05/24 02:49:41;;;;;;;3.45;1.50;;;23.80;54.90;;;;;;5093088;28;20394;-66
2022/05/24 02:52:07;;;;;;;2.63;1.50;;;23.80;54.90;;;;;;5092649;28;20402;-66
2022/05/24 02:54:32;;;;;;;4.30;1.80;;;23.80;54.90;;;;;;5092986;28;20909;-66
2022/05/24 02:57:01;;;;;;;3.30;1.60;;;23.70;54.80;;;;;;5092459;28;20429;-66
2022/05/24 02:59:27;;;;;;;3.90;1.70;;;23.80;54.90;;;;;;5092792;28;20774;-66
2022/05/24 03:01:52;;;;;;;3.00;1.55;;;23.70;54.80;;;;;;5091617;28;20382;-66
2022/05/24 03:04:18;;;;;;;2.97;1.70;;;23.80;54.90;;;;;;5092871;28;20497;-66
2022/05/24 03:09:35;;;;;;;3.58;1.58;;;23.80;56.00;;;;;;5092931;28;20416;-66
2022/05/24 03:14:50;;;;;;;4.10;1.80;;;23.80;56.30;;;;;;5092867;28;21043;-66
2022/05/24 03:17:16;;;;;;;6.22;2.10;;;23.80;55.80;;;;;;5092775;28;20430;-66
2022/05/24 03:19:42;;;;;;;4.70;2.10;;;23.80;57.80;;;;;;5092324;28;20456;-67
2022/05/24 03:22:09;;;;;;;4.80;1.92;;;23.90;57.90;;;;;;5094340;28;20501;-67
2022/05/24 03:24:36;;;;;;;5.78;1.80;;;23.90;57.80;;;;;;5092913;28;20390;-66
2022/05/24 03:27:07;;;;;;;6.07;1.83;;;24.00;57.90;;;;;;5091674;28;20378;-67
2022/05/24 03:29:34;;;;;;;6.85;2.08;;;24.00;58.50;;;;;;5092164;28;20386;-66
2022/05/24 03:32:00;;;;;;;5.03;2.10;;;24.00;58.90;;;;;;5091629;28;20389;-67
2022/05/24 03:34:25;;;;;;;5.65;1.88;;;24.10;59.20;;;;;;5092293;28;20390;-66
2022/05/24 03:36:51;;;;;;;5.20;2.10;;;24.00;59.20;;;;;;5092080;28;20407;-67
2022/05/24 03:39:17;;;;;;;4.97;1.80;;;24.10;59.40;;;;;;5090592;28;20559;-67
2022/05/24 03:41:45;;;;;;;3.50;1.80;;;24.00;59.20;;;;;;5090688;28;20399;-67
2022/05/24 03:44:11;;;;;;;6.60;1.80;;;24.10;59.10;;;;;;5092130;28;20905;-66
2022/05/24 03:46:37;;;;;;;6.18;2.03;;;24.10;59.20;;;;;;5090634;28;20414;-66
2022/05/24 03:49:04;;;;;;;5.70;1.80;;;24.10;59.30;;;;;;5091591;28;20386;-66
2022/05/24 03:51:30;;;;;;;4.18;1.83;;;24.10;58.10;;;;;;5091595;28;20402;-66
2022/05/24 03:53:55;;;;;;;5.18;2.42;;;24.00;57.50;;;;;;5090762;28;20400;-66
2022/05/24 03:56:22;;;;;;;9.33;4.90;;;24.00;56.60;;;;;;5090731;28;20493;-66
2022/05/24 03:58:48;;;;;;;11.30;5.50;;;24.00;56.60;;;;;;5091727;28;20755;-66
2022/05/24 04:01:13;;;;;;;11.00;4.68;;;23.90;56.80;;;;;;5091569;28;20423;-66
2022/05/24 04:03:39;;;;;;;8.93;4.10;;;23.90;57.00;;;;;;5091667;28;20378;-67
2022/05/24 04:06:04;;;;;;;6.90;3.88;;;23.90;56.90;;;;;;5091619;28;20386;-67
2022/05/24 04:08:30;;;;;;;8.82;3.53;;;23.90;57.20;;;;;;5091623;28;20382;-67
2022/05/24 04:11:08;;;;;;;6.13;3.40;;;23.90;57.00;;;;;;5091950;28;20421;-66
2022/05/24 04:13:37;;;;;;;9.23;2.90;;;23.80;56.90;;;;;;5091685;28;20397;-66
2022/05/24 04:16:03;;;;;;;8.18;3.10;;;23.80;57.00;;;;;;5092110;28;20410;-66
2022/05/24 04:18:29;;;;;;;6.35;2.50;;;23.80;57.00;;;;;;5091451;28;20417;-66
2022/05/24 04:20:55;;;;;;;6.68;2.80;;;23.80;56.80;;;;;;5091358;28;20389;-66
2022/05/24 04:23:22;;;;;;;6.80;2.80;;;23.80;56.80;;;;;;5091386;28;20386;-66
2022/05/24 04:25:48;;;;;;;6.35;2.63;;;23.80;56.80;;;;;;5091716;28;20511;-66
2022/05/24 04:28:18;;;;;;;6.05;2.70;;;23.80;56.70;;;;;;5091441;28;20389;-66
2022/05/24 04:30:46;;;;;;;5.78;2.60;;;23.80;56.80;;;;;;5090684;28;20512;-67
2022/05/24 04:33:12;;;;;;;5.40;2.65;;;23.80;56.70;;;;;;5106985;28;20446;-66
2022/05/24 04:35:38;;;;;;;7.00;2.65;;;23.80;56.50;;;;;;5111854;28;20709;-66
2022/05/24 04:38:04;;;;;;;4.73;2.50;;;23.80;56.50;;;;;;5111863;28;20966;-66
2022/05/24 04:43:13;;;;;;;3.97;2.50;;;23.80;56.30;;;;;;5091228;28;20397;-66
2022/05/24 04:45:39;;;;;;;4.97;2.47;;;23.80;56.40;;;;;;5100934;28;20876;-67
2022/05/24 04:48:06;;;;;;;4.50;2.40;;;23.80;56.20;;;;;;5100832;28;20384;-66
2022/05/24 04:50:33;;;;;;;4.13;2.50;;;23.80;56.20;;;;;;5099962;28;20400;-66
2022/05/24 04:52:59;;;;;;;3.63;2.30;;;23.80;56.10;;;;;;5111795;28;20412;-66
2022/05/24 04:55:26;;;;;;;4.53;2.10;;;23.80;56.10;;;;;;5100019;28;20447;-66
2022/05/24 04:57:53;;;;;;;5.28;2.20;;;23.80;56.00;;;;;;5095209;28;20727;-65
2022/05/24 05:00:20;;;;;;;8.68;2.78;;;23.70;56.10;;;;;;5095159;28;20995;-65
2022/05/24 05:02:46;;;;;;;5.57;2.30;;;23.80;56.20;;;;;;5095073;28;21102;-66
2022/05/24 05:05:13;;;;;;;9.52;2.22;;;23.80;56.20;;;;;;5094668;28;20768;-66
2022/05/24 05:07:39;;;;;;;4.60;2.15;;;23.70;56.10;;;;;;5094914;28;20378;-66
2022/05/24 05:10:05;;;;;;;4.65;2.20;;;23.70;56.10;;;;;;5095018;28;20447;-66
2022/05/24 05:12:31;;;;;;;5.00;2.10;;;23.70;55.90;;;;;;5094799;28;20471;-66
2022/05/24 05:14:57;;;;;;;6.17;2.50;;;23.70;55.80;;;;;;5094561;28;20447;-66
2022/05/24 05:17:23;;;;;;;4.40;2.20;;;23.70;56.00;;;;;;5094366;28;20758;-66
2022/05/24 05:19:49;;;;;;;7.13;2.42;;;23.70;56.00;;;;;;5094576;28;20494;-67
2022/05/24 05:22:16;;;;;;;5.80;2.30;;;23.70;55.90;;;;;;5094720;28;20464;-66
2022/05/24 05:24:42;;;;;;;5.93;2.67;;;23.70;56.30;;;;;;5094602;28;20823;-66
2022/05/24 05:27:08;;;;;;;4.55;2.38;;;23.80;56.90;;;;;;5094006;28;20378;-66
2022/05/24 05:32:26;;;;;;;4.38;2.33;;;23.80;57.10;;;;;;5093274;28;20451;-66
2022/05/24 05:34:53;;;;;;;5.30;2.45;;;23.80;57.30;;;;;;5090818;28;20402;-67
2022/05/24 05:37:19;;;;;;;6.10;2.30;;;23.80;57.30;;;;;;5093354;28;20382;-67
2022/05/24 05:39:45;;;;;;;5.18;2.40;;;23.80;57.10;;;;;;5092937;28;20417;-66
2022/05/24 05:42:11;;;;;;;4.60;2.30;;;23.90;57.10;;;;;;5094357;28;20735;-66
2022/05/24 05:44:39;;;;;;;5.10;2.40;;;23.90;56.90;;;;;;5094204;28;20397;-66
2022/05/24 05:47:06;;;;;;;5.22;2.35;;;23.90;57.00;;;;;;5093854;28;20394;-66
2022/05/24 05:49:31;;;;;;;4.13;2.20;;;23.90;57.10;;;;;;5094128;28;20387;-66
2022/05/24 05:51:58;;;;;;;4.63;2.20;;;23.90;56.50;;;;;;5098043;28;20458;-66
2022/05/24 05:54:24;;;;;;;4.60;2.20;;;23.90;56.20;;;;;;5093579;28;20421;-65
2022/05/24 05:56:50;;;;;;;4.88;2.22;;;23.90;56.20;;;;;;5092594;28;20382;-65
2022/05/24 05:59:16;;;;;;;4.28;1.90;;;23.90;56.20;;;;;;5082951;28;20420;-65
2022/05/24 06:01:42;;;;;;;4.28;2.05;;;23.90;56.30;;;;;;5089148;28;20382;-66
2022/05/24 06:04:09;;;;;;;4.63;1.90;;;23.80;56.10;;;;;;5092188;28;20793;-66
2022/05/24 06:06:38;;;;;;;3.28;2.00;;;23.80;56.00;;;;;;5093365;28;20379;-66
2022/05/24 06:09:04;;;;;;;4.72;2.13;;;23.90;56.00;;;;;;5091980;28;20391;-67
2022/05/24 06:11:30;;;;;;;3.92;2.10;;;23.90;56.00;;;;;;5095549;28;20919;-66
2022/05/24 06:13:56;;;;;;;3.77;2.10;;;23.80;55.90;;;;;;5112360;28;20887;-67
2022/05/24 06:16:21;;;;;;;4.50;2.10;;;23.90;56.00;;;;;;5114047;28;20392;-66
2022/05/24 06:18:47;;;;;;;3.20;1.90;;;23.80;55.90;;;;;;5113326;28;20401;-66
2022/05/24 06:21:13;;;;;;;3.70;2.00;;;23.80;55.80;;;;;;5113348;28;20396;-66
2022/05/24 06:23:39;;;;;;;3.40;2.20;;;23.80;55.80;;;;;;5112480;28;20380;-66
2022/05/24 06:26:05;;;;;;;4.28;2.08;;;23.90;55.80;;;;;;5113801;28;20388;-66
2022/05/24 06:28:30;;;;;;;4.20;2.10;;;23.80;55.70;;;;;;5113621;28;20372;-66
2022/05/24 06:30:57;;;;;;;3.25;2.00;;;23.90;55.80;;;;;;5113056;27;20867;-66
2022/05/24 06:33:22;;;;;;;2.88;2.05;;;23.80;55.70;;;;;;5113283;28;20380;-66
2022/05/24 06:35:48;;;;;;;3.55;1.88;;;23.90;55.70;;;;;;5113579;28;20462;-66
2022/05/24 06:38:16;;;;;;;5.13;1.90;;;23.90;55.60;;;;;;5113494;28;20413;-66
2022/05/24 06:40:41;;;;;;;3.63;1.80;;;23.80;55.50;;;;;;5113169;27;20462;-66
2022/05/24 06:43:07;;;;;;;4.05;1.88;;;23.90;55.60;;;;;;5112522;28;20376;-67
2022/05/24 06:45:33;;;;;;;3.53;1.80;;;23.90;55.60;;;;;;5111491;28;20441;-66
2022/05/24 06:47:59;;;;;;;3.27;1.80;;;23.90;55.60;;;;;;5113231;28;20419;-67
2022/05/24 06:50:25;;;;;;;3.22;1.83;;;23.90;55.50;;;;;;5111960;28;20388;-67
2022/05/24 06:52:56;;;;;;;2.90;1.70;;;23.90;55.50;;;;;;5112971;28;20757;-66
2022/05/24 06:55:23;;;;;;;2.90;1.90;;;23.90;55.50;;;;;;5112569;28;20868;-67
2022/05/24 06:57:49;;;;;;;3.38;1.80;;;23.90;55.50;;;;;;5113133;28;20401;-66
2022/05/24 07:03:13;;;;;;;2.70;1.90;;;23.90;55.40;;;;;;5112870;28;20875;-66
2022/05/24 07:05:39;;;;;;;3.30;1.88;;;23.90;55.30;;;;;;5112953;28;20761;-66
2022/05/24 07:08:05;;;;;;;2.40;1.60;;;23.90;55.30;;;;;;5112947;27;20896;-66
2022/05/24 07:10:34;;;;;;;2.10;1.50;;;23.90;55.30;;;;;;5112856;28;20469;-67
2022/05/24 07:13:05;;;;;;;2.40;1.80;;;23.90;55.20;;;;;;5112210;27;20501;-67
2022/05/24 07:15:31;;;;;;;2.42;1.40;;;23.90;55.30;;;;;;5112523;28;20376;-66
2022/05/24 07:17:57;;;;;;;3.50;1.60;;;23.90;55.20;;;;;;5111480;28;20380;-67
2022/05/24 07:20:25;;;;;;;3.20;1.75;;;23.90;55.10;;;;;;5111498;28;20423;-67
2022/05/24 07:22:51;;;;;;;2.97;1.70;;;23.90;55.20;;;;;;5112633;28;20419;-66
2022/05/24 07:25:18;;;;;;;2.85;1.60;;;23.90;55.10;;;;;;5112174;28;20393;-66
2022/05/24 07:27:44;;;;;;;2.53;1.65;;;23.90;55.20;;;;;;5113279;28;20383;-67
2022/05/24 07:30:10;;;;;;;2.08;1.65;;;23.90;55.10;;;;;;5097612;28;20390;-67
2022/05/24 07:32:36;;;;;;;2.50;1.70;;;23.90;55.10;;;;;;5092137;28;20382;-67
2022/05/24 07:35:05;;;;;;;2.50;1.70;;;23.90;55.10;;;;;;5091583;28;20400;-66
2022/05/24 07:37:31;;;;;;;2.65;1.80;;;23.90;55.00;;;;;;5091719;28;20390;-67
2022/05/24 07:48:09;;;;;;;2.28;1.50;;;24.00;55.00;;;;;;5091936;28;20730;-66
2022/05/24 07:50:35;;;;;;;2.33;1.50;;;24.00;55.00;;;;;;5091815;28;20390;-66
2022/05/24 07:53:01;;;;;;;2.42;1.73;;;24.00;55.00;;;;;;5091373;28;20402;-66
2022/05/24 07:55:27;;;;;;;2.50;1.75;;;24.00;55.10;;;;;;5091408;28;20814;-66
2022/05/24 07:57:52;;;;;;;4.60;2.30;;;24.00;55.30;;;;;;5091511;28;20392;-68
2022/05/24 08:00:19;;;;;;;4.28;2.38;;;24.00;57.50;;;;;;5090896;28;20414;-66
2022/05/24 08:02:44;;;;;;;4.30;2.00;;;24.10;58.50;;;;;;5090909;28;20382;-67
2022/05/24 08:05:10;;;;;;;3.30;1.87;;;24.10;57.60;;;;;;5073233;28;20482;-66
2022/05/24 08:07:37;;;;;;;2.50;1.63;;;24.10;57.50;;;;;;5091369;28;20374;-67
2022/05/24 08:10:04;;;;;;;2.88;1.80;;;24.10;56.90;;;;;;5091552;28;20431;-67
2022/05/24 08:12:31;;;;;;;2.83;1.77;;;24.10;56.60;;;;;;5091334;28;20389;-66
2022/05/24 08:14:58;;;;;;;3.08;1.63;;;24.10;56.30;;;;;;5091349;28;20450;-66
2022/05/24 08:17:23;;;;;;;3.22;1.65;;;24.10;56.10;;;;;;5072855;28;20747;-66
2022/05/24 08:19:49;;;;;;;3.05;1.80;;;24.20;56.00;;;;;;5091349;28;20402;-66
2022/05/24 08:22:14;;;;;;;2.53;1.50;;;24.10;55.80;;;;;;5091670;28;20385;-66
2022/05/24 08:24:40;;;;;;;2.90;1.60;;;24.10;55.70;;;;;;5090550;28;20397;-66
2022/05/24 08:27:06;;;;;;;2.67;1.60;;;24.20;55.50;;;;;;5091131;28;20378;-66
2022/05/24 08:29:32;;;;;;;3.78;1.50;;;24.20;55.30;;;;;;5090946;28;20390;-66
2022/05/24 08:31:58;;;;;;;2.50;1.40;;;24.20;55.40;;;;;;5091335;28;20404;-66
2022/05/24 08:34:23;;;;;;;3.65;1.50;;;24.20;55.30;;;;;;5091201;28;20416;-66
2022/05/24 08:36:49;;;;;;;2.50;1.60;;;24.20;54.90;;;;;;5090976;28;20429;-66
2022/05/24 08:39:15;;;;;;;2.43;1.70;;;24.20;54.70;;;;;;5072680;28;20410;-66
2022/05/24 08:42:04;;;;;;;1.90;1.40;;;24.10;54.90;;;;;;5086630;28;20392;-66
2022/05/24 08:50:19;;;;;;;2.30;1.38;;;24.20;54.70;;;;;;5071209;28;20390;-66
2022/05/24 08:53:06;;;;;;;2.60;1.50;;;24.10;54.70;;;;;;5085657;28;20501;-66
2022/05/24 08:55:33;;;;;;;2.03;1.42;;;24.10;54.60;;;;;;5090922;28;20436;-66
2022/05/24 08:58:00;;;;;;;1.63;1.38;;;24.10;54.60;;;;;;5090970;28;20394;-67
2022/05/24 09:00:40;;;;;;;1.98;1.30;;;24.20;54.70;;;;;;5091283;28;20506;-66
2022/05/24 09:03:08;;;;;;;1.90;1.27;;;24.10;54.50;;;;;;5090970;28;20457;-66
2022/05/24 09:05:50;;;;;;;2.42;1.40;;;24.10;54.60;;;;;;5090701;28;20831;-66
2022/05/24 09:08:32;;;;;;;1.83;1.20;;;24.10;54.60;;;;;;5091303;28;20904;-66
2022/05/24 09:11:30;;;;;;;2.10;1.30;;;24.10;54.60;;;;;;5090630;28;20398;-66
2022/05/24 09:14:11;;;;;;;2.40;1.60;;;24.10;54.50;;;;;;5090861;28;20443;-66
2022/05/24 09:16:57;;;;;;;2.37;1.40;;;24.10;54.90;;;;;;5089138;28;20470;-66
2022/05/24 09:19:27;;;;;;;2.05;1.35;;;24.10;54.50;;;;;;5090223;28;20504;-66
2022/05/24 09:21:53;;;;;;;2.35;1.40;;;24.10;54.50;;;;;;5089407;28;20386;-66
2022/05/24 09:24:41;;;;;;;1.83;1.40;;;24.10;54.60;;;;;;5091085;28;20849;-66
2022/05/24 09:27:14;;;;;;;2.25;1.60;;;24.10;54.60;;;;;;5090295;28;20523;-66
2022/05/24 09:29:52;;;;;;;2.58;1.38;;;24.10;54.60;;;;;;5090550;28;20386;-67
2022/05/24 09:32:18;;;;;;;2.65;1.60;;;24.10;54.50;;;;;;5090740;28;20720;-66
2022/05/24 09:34:43;;;;;;;2.58;1.48;;;24.10;54.50;;;;;;5090446;28;20439;-67
2022/05/24 09:37:26;;;;;;;1.60;1.10;;;24.10;54.50;;;;;;5093811;28;20386;-67
2022/05/24 09:40:05;;;;;;;1.80;1.40;;;24.10;54.50;;;;;;5094485;28;20570;-66
2022/05/24 09:42:36;;;;;;;2.23;1.40;;;24.10;55.10;;;;;;5094129;28;20461;-66
2022/05/24 09:45:10;;;;;;;3.05;1.48;;;24.00;54.60;;;;;;5094180;28;20394;-66
2022/05/24 09:47:58;;;;;;;2.73;1.50;;;24.00;54.50;;;;;;5093777;28;20393;-67
2022/05/24 09:50:36;;;;;;;2.30;1.42;;;24.00;54.60;;;;;;5093804;28;20386;-67
2022/05/24 09:53:02;;;;;;;1.98;1.33;;;24.00;54.60;;;;;;5093627;28;20454;-67
2022/05/24 09:55:46;;;;;;;2.13;1.30;;;24.00;54.50;;;;;;5093513;28;20386;-67
2022/05/24 09:58:18;;;;;;;2.30;1.40;;;24.00;54.50;;;;;;5093910;28;20390;-67
2022/05/24 10:01:04;;;;;;;2.38;1.40;;;24.00;54.50;;;;;;5093702;28;20394;-67
2022/05/24 10:03:32;;;;;;;2.13;1.20;;;24.00;54.40;;;;;;5093138;28;20379;-67
2022/05/24 10:06:16;;;;;;;2.25;1.20;;;24.00;54.50;;;;;;5093703;28;20416;-67
2022/05/24 10:08:54;;;;;;;2.47;1.35;;;24.00;54.50;;;;;;5093479;28;20473;-67
2022/05/24 10:11:45;;;;;;;2.25;1.20;;;24.00;54.50;;;;;;5093218;28;20386;-66
2022/05/24 10:14:38;;;;;;;2.40;1.30;;;24.00;54.60;;;;;;5093748;28;20386;-66
2022/05/24 10:17:14;;;;;;;3.05;1.40;;;24.00;54.50;;;;;;5093519;28;20386;-67
2022/05/24 10:19:56;;;;;;;3.05;1.40;;;24.00;54.50;;;;;;5093159;28;20413;-67
2022/05/24 10:22:41;;;;;;;1.88;1.30;;;24.00;54.50;;;;;;5093196;28;20858;-67
2022/05/24 10:25:10;;;;;;;2.13;1.38;;;24.00;54.50;;;;;;5093893;28;20886;-67
2022/05/24 10:28:11;;;;;;;2.38;1.70;;;24.00;54.50;;;;;;5093065;28;20394;-66
2022/05/24 10:31:08;;;;;;;2.40;1.50;;;24.00;54.50;;;;;;5093219;28;20432;-66
2022/05/24 10:39:55;;;;;;;2.00;1.40;;;23.90;54.40;;;;;;5092583;28;20432;-67
2022/05/24 10:42:51;;;;;;;1.98;1.58;;;23.90;54.40;;;;;;5087032;28;20390;-66
2022/05/24 10:45:20;;;;;;;2.55;1.60;;;24.00;54.50;;;;;;5092894;28;20389;-67
2022/05/24 10:48:04;;;;;;;1.88;1.42;;;24.00;54.50;;;;;;5092306;28;20854;-67
2022/05/24 10:50:36;;;;;;;2.22;1.60;;;24.00;54.40;;;;;;5092113;28;20398;-67
2022/05/24 10:53:09;;;;;;;2.10;1.52;;;23.90;54.40;;;;;;5092297;28;20409;-67
2022/05/24 10:55:45;;;;;;;2.42;1.58;;;23.90;54.40;;;;;;5092301;28;20378;-67
2022/05/24 10:58:14;;;;;;;2.15;1.40;;;23.90;54.40;;;;;;5090620;28;20390;-67
2022/05/24 11:00:43;;;;;;;2.42;1.70;;;23.90;54.40;;;;;;5091124;28;20481;-67
2022/05/24 11:03:24;;;;;;;1.85;1.50;;;23.90;54.40;;;;;;5090726;28;20378;-66
2022/05/24 11:06:01;;;;;;;1.92;1.50;;;23.90;55.00;;;;;;5090837;28;20433;-67
2022/05/24 11:08:52;;;;;;;2.30;1.57;;;23.90;54.40;;;;;;5090550;28;20881;-66
2022/05/24 11:11:39;;;;;;;2.15;1.58;;;23.90;54.40;;;;;;5092437;28;20382;-67
2022/05/24 11:14:26;;;;;;;2.03;1.50;;;23.90;54.40;;;;;;5091077;28;20413;-67
2022/05/24 11:16:53;;;;;;;2.03;1.52;;;23.90;54.40;;;;;;5090847;28;20401;-66
2022/05/24 11:19:23;;;;;;;1.80;1.40;;;23.90;54.40;;;;;;5090839;28;20437;-66
2022/05/24 11:22:11;;;;;;;2.37;1.50;;;23.90;54.40;;;;;;5091167;28;20447;-67
2022/05/24 11:24:58;;;;;;;1.88;1.50;;;23.90;54.40;;;;;;5092268;28;20742;-67
2022/05/24 11:27:37;;;;;;;1.98;1.50;;;23.90;54.40;;;;;;5090290;28;20394;-67
2022/05/24 11:30:28;;;;;;;2.63;1.60;;;23.90;54.40;;;;;;5090687;28;20390;-66
2022/05/24 11:33:02;;;;;;;1.83;1.33;;;23.90;54.40;;;;;;5092049;28;20443;-66
2022/05/24 11:35:35;;;;;;;2.00;1.50;;;23.90;54.40;;;;;;5091524;28;20746;-66
2022/05/24 11:38:23;;;;;;;2.67;1.58;;;23.90;54.30;;;;;;5092106;28;20386;-67
2022/05/24 11:40:54;;;;;;;2.03;1.70;;;23.90;54.30;;;;;;5091981;28;20390;-66
2022/05/24 11:43:35;;;;;;;1.60;1.30;;;23.90;54.30;;;;;;5090440;28;20427;-66
2022/05/24 11:46:27;;;;;;;2.03;1.52;;;23.90;54.30;;;;;;5090826;28;20420;-67
2022/05/24 11:48:55;;;;;;;2.00;1.50;;;23.90;54.30;;;;;;5091966;28;20386;-67
2022/05/24 11:51:54;;;;;;;2.25;1.40;;;23.90;54.30;;;;;;5089872;28;20405;-66
2022/05/24 11:54:23;;;;;;;1.80;1.60;;;23.90;54.30;;;;;;5080180;28;20424;-67
2022/05/24 11:57:01;;;;;;;1.80;1.60;;;23.90;54.30;;;;;;5089865;28;20382;-67
2022/05/24 11:59:39;;;;;;;2.00;1.40;;;23.90;54.30;;;;;;5090164;28;20463;-66
2022/05/24 12:02:33;;;;;;;1.52;1.27;;;23.90;54.50;;;;;;5090398;28;20390;-66
2022/05/24 12:08:33;;;;;;;4.20;1.63;;;23.90;55.10;;;;;;5056102;28;20388;-67
2022/05/24 12:11:04;;;;;;;6.78;1.70;;;23.90;55.30;;;;;;5041982;28;20386;-67
2022/05/24 12:13:38;;;;;;;7.95;2.17;;;23.90;55.60;;;;;;5074576;28;20402;-66
2022/05/24 12:16:35;;;;;;;11.30;4.13;;;23.90;56.10;;;;;;5088737;28;21360;-67
2022/05/24 12:19:03;;;;;;;19.63;7.70;;;23.90;58.00;;;;;;5090820;28;20455;-67
2022/05/24 12:21:50;;;;;;;28.13;10.85;;;24.00;61.10;;;;;;5088303;28;20482;-67
2022/05/24 12:24:40;;;;;;;21.17;9.18;;;24.10;63.30;;;;;;5088114;28;20389;-66
2022/05/24 12:27:33;;;;;;;16.03;6.90;;;24.10;64.50;;;;;;5088440;28;21949;-67
2022/05/24 12:30:16;;;;;;;11.30;4.87;;;24.10;62.40;;;;;;5086815;28;20783;-67
2022/05/24 12:32:42;;;;;;;9.30;3.38;;;24.10;60.20;;;;;;5088815;28;20418;-67
2022/05/24 12:35:11;;;;;;;6.45;2.70;;;24.10;59.60;;;;;;5089619;28;20413;-67
2022/05/24 12:37:45;;;;;;;4.07;2.25;;;24.10;58.50;;;;;;5088032;28;20434;-67
2022/05/24 12:40:18;;;;;;;5.82;2.28;;;24.10;57.80;;;;;;5088842;28;20932;-67
2022/05/24 12:43:12;;;;;;;4.57;2.08;;;24.00;57.50;;;;;;5089688;28;20410;-67
2022/05/24 12:45:41;;;;;;;7.40;2.60;;;24.00;56.50;;;;;;5087418;28;20386;-67
2022/05/24 12:48:24;;;;;;;194.10;96.77;;;24.10;59.00;;;;;;5088167;28;20382;-66
2022/05/24 12:50:58;;;;;;;95.00;50.60;;;24.10;62.70;;;;;;5089828;28;20408;-67
2022/05/24 12:53:24;;;;;;;45.17;24.67;;;24.10;61.20;;;;;;5070451;28;20400;-67
2022/05/24 12:56:03;;;;;;;55.55;29.95;;;24.10;60.50;;;;;;5071066;28;20875;-66
2022/05/24 12:58:33;;;;;;;16.48;8.75;;;24.20;60.10;;;;;;5053270;28;20922;-67
2022/05/24 13:01:31;;;;;;;16.27;8.73;;;24.10;57.20;;;;;;5071277;28;20478;-67
2022/05/24 13:04:11;;;;;;;14.05;7.18;;;24.10;58.10;;;;;;5084778;28;20404;-67
2022/05/24 13:06:39;;;;;;;8.95;4.68;;;24.00;56.50;;;;;;5069133;28;20387;-67
2022/05/24 13:09:29;;;;;;;8.90;5.63;;;24.00;56.70;;;;;;5051968;28;20395;-67
2022/05/24 13:12:01;;;;;;;4.53;2.90;;;24.00;56.60;;;;;;5044451;28;20392;-67
2022/05/24 13:14:43;;;;;;;4.85;2.50;;;23.90;55.70;;;;;;5073932;28;20438;-67
2022/05/24 13:17:11;;;;;;;4.45;2.05;;;23.80;55.90;;;;;;5071635;28;20392;-67
2022/05/24 13:19:57;;;;;;;4.47;2.00;;;23.50;57.50;;;;;;5055162;28;20416;-67
2022/05/24 13:22:43;;;;;;;5.35;1.80;;;23.50;57.10;;;;;;5072904;28;20718;-67
2022/05/24 13:25:19;;;;;;;2.72;1.90;;;23.60;56.80;;;;;;5072920;28;20376;-67
2022/05/24 13:27:53;;;;;;;4.67;2.00;;;23.60;56.50;;;;;;5056380;28;20541;-67
2022/05/24 13:33:35;;;;;;;3.17;1.65;;;23.70;56.20;;;;;;5073946;28;20387;-67
2022/05/24 13:36:20;;;;;;;3.00;1.70;;;23.70;56.00;;;;;;5056947;28;20407;-67
2022/05/24 13:39:04;;;;;;;3.10;1.53;;;23.70;55.90;;;;;;5074042;28;20395;-66
2022/05/24 13:41:38;;;;;;;3.03;1.60;;;23.80;55.70;;;;;;5073682;28;20426;-67
2022/05/24 13:44:21;;;;;;;3.30;1.70;;;23.80;55.80;;;;;;5073678;28;20392;-67
2022/05/24 13:46:53;;;;;;;2.75;1.60;;;23.80;55.80;;;;;;5055696;28;20396;-66
2022/05/24 13:49:46;;;;;;;2.63;1.50;;;23.80;55.70;;;;;;5073813;28;20390;-66
2022/05/24 13:52:28;;;;;;;2.60;1.70;;;23.80;55.70;;;;;;5070612;28;20416;-67
2022/05/24 13:55:17;;;;;;;2.42;1.80;;;23.80;55.50;;;;;;5093985;28;20949;-66
2022/05/24 13:58:04;;;;;;;2.38;1.50;;;23.80;55.50;;;;;;5080853;28;20433;-67